createdAt,value
2022-09-16T00:00:20.584Z,93291.81
2022-09-16T00:01:19.950Z,93289.59
2022-09-16T00:02:16.679Z,93296.44
2022-09-16T00:03:13.930Z,93296.97
2022-09-16T00:04:10.551Z,93293.25
2022-09-16T00:05:07.706Z,93297.22
2022-09-16T00:06:04.426Z,93295.38
2022-09-16T00:07:00.996Z,93297.66
2022-09-16T00:07:57.662Z,93293.69
2022-09-16T00:09:01.029Z,93293.31
2022-09-16T00:09:57.632Z,93288.25
2022-09-16T00:10:54.248Z,93294.53
2022-09-16T00:11:50.802Z,93303.78
2022-09-16T00:12:47.839Z,93304.91
2022-09-16T00:13:45.795Z,93300.66
2022-09-16T00:14:42.509Z,93301.97
2022-09-16T00:16:40.021Z,93281.97
2022-09-16T00:17:37.974Z,93306.75
2022-09-16T00:18:34.856Z,93307.09
2022-09-16T00:19:31.795Z,93305.53
2022-09-16T00:20:28.895Z,93322.44
2022-09-16T00:21:26.073Z,93309.66
2022-09-16T00:22:22.686Z,93286.81
2022-09-16T00:23:19.963Z,93312.16
2022-09-16T00:24:16.787Z,93302.69
2022-09-16T00:25:13.411Z,93292.06
2022-09-16T00:26:10.205Z,93293.84
2022-09-16T00:27:06.753Z,93298.75
2022-09-16T00:28:03.415Z,93289.69
2022-09-16T00:29:00.012Z,93285.53
2022-09-16T00:29:56.607Z,93287.31
2022-09-16T00:30:53.556Z,93286.38
2022-09-16T00:31:51.154Z,93301.44
2022-09-16T00:32:47.791Z,93288.53
2022-09-16T00:33:44.449Z,93288.34
2022-09-16T00:34:41.064Z,93295.78
2022-09-16T00:35:37.671Z,93295.06
2022-09-16T00:36:34.233Z,93300.69
2022-09-16T00:37:33.372Z,93287.72
2022-09-16T00:38:29.983Z,93291.09
2022-09-16T00:39:26.546Z,93284.69
2022-09-16T00:40:23.432Z,93287.66
2022-09-16T00:41:23.099Z,93286.13
2022-09-16T00:42:21.017Z,93278.56
2022-09-16T00:43:19.861Z,93286.81
2022-09-16T00:44:55.525Z,93285.19
2022-09-16T00:46:02.269Z,93290.34
2022-09-16T00:46:59.305Z,93292.13
2022-09-16T00:48:03.166Z,93296.41
2022-09-16T00:49:10.807Z,93269.94
2022-09-16T00:50:38.534Z,93294.81
2022-09-16T00:51:35.450Z,93299.47
2022-09-16T00:52:33.123Z,93306.50
2022-09-16T00:53:40.704Z,93305.03
2022-09-16T00:54:40.952Z,93315.03
2022-09-16T00:55:38.370Z,93309.38
2022-09-16T00:56:38.798Z,93313.19
2022-09-16T00:57:36.663Z,93306.00
2022-09-16T00:58:39.196Z,93312.19
2022-09-16T00:59:37.194Z,93320.22
2022-09-16T01:00:34.216Z,93307.94
2022-09-16T01:01:32.184Z,93307.91
2022-09-16T01:02:28.839Z,93312.31
2022-09-16T01:03:27.680Z,93308.16
2022-09-16T01:04:30.013Z,93312.69
2022-09-16T01:05:27.078Z,93314.16
2022-09-16T01:06:26.117Z,93311.50
2022-09-16T01:07:54.805Z,93314.00
2022-09-16T01:08:51.611Z,93302.16
2022-09-16T01:09:48.248Z,93311.75
2022-09-16T01:10:44.858Z,93311.75
2022-09-16T01:11:41.422Z,93307.06
2022-09-16T01:12:39.975Z,93312.56
2022-09-16T01:13:37.578Z,93299.19
2022-09-16T01:14:52.807Z,93306.38
2022-09-16T01:16:01.684Z,93310.13
2022-09-16T01:17:08.094Z,93305.97
2022-09-16T01:18:11.669Z,93313.44
2022-09-16T01:19:52.020Z,93297.03
2022-09-16T01:21:08.598Z,93307.91
2022-09-16T01:22:38.944Z,93311.06
2022-09-16T01:24:05.198Z,93309.63
2022-09-16T01:25:18.673Z,93298.59
2022-09-16T01:26:47.344Z,93300.13
2022-09-16T01:28:17.504Z,93302.34
2022-09-16T01:29:37.396Z,93312.03
2022-09-16T01:30:41.153Z,93305.94
2022-09-16T01:31:48.139Z,93301.28
2022-09-16T01:33:22.127Z,93303.50
2022-09-16T01:34:24.848Z,93309.25
2022-09-16T01:35:35.648Z,93314.28
2022-09-16T01:37:01.159Z,93316.25
2022-09-16T01:38:21.744Z,93311.38
2022-09-16T01:39:25.859Z,93298.63
2022-09-16T01:40:28.531Z,93308.03
2022-09-16T01:41:46.416Z,93309.34
2022-09-16T01:43:07.419Z,93299.88
2022-09-16T01:44:17.252Z,93305.47
2022-09-16T01:45:35.886Z,93307.09
2022-09-16T01:46:52.493Z,93306.75
2022-09-16T01:48:00.128Z,93301.19
2022-09-16T01:49:43.429Z,93308.22
2022-09-16T01:50:47.762Z,93313.06
2022-09-16T01:51:57.079Z,93316.00
2022-09-16T01:53:31.147Z,93306.28
2022-09-16T01:54:39.251Z,93305.03
2022-09-16T01:55:46.886Z,93299.44
2022-09-16T01:56:54.632Z,93309.78
2022-09-16T01:58:09.362Z,93308.97
2022-09-16T01:59:15.678Z,93309.66
2022-09-16T02:00:14.552Z,93255.97
2022-09-16T02:01:37.887Z,93311.66
2022-09-16T02:02:45.183Z,93310.16
2022-09-16T02:03:45.958Z,93316.50
2022-09-16T02:04:52.664Z,93308.88
2022-09-16T02:05:56.130Z,93297.53
2022-09-16T02:06:56.651Z,93301.22
2022-09-16T02:08:06.014Z,93293.97
2022-09-16T02:09:10.171Z,93293.75
2022-09-16T02:10:33.247Z,93284.28
2022-09-16T02:11:30.722Z,93292.41
2022-09-16T02:12:32.211Z,93285.13
2022-09-16T02:13:39.825Z,93267.06
2022-09-16T02:14:43.057Z,93282.06
2022-09-16T02:15:42.260Z,93275.06
2022-09-16T02:16:46.051Z,93277.03
2022-09-16T02:17:48.874Z,93266.56
2022-09-16T02:18:53.079Z,93262.28
2022-09-16T02:20:01.805Z,93264.56
2022-09-16T02:21:01.648Z,93266.53
2022-09-16T02:22:02.263Z,93265.03
2022-09-16T02:23:07.864Z,93253.31
2022-09-16T02:24:11.852Z,93275.94
2022-09-16T02:25:10.093Z,93278.72
2022-09-16T02:26:11.552Z,93286.41
2022-09-16T02:27:14.158Z,93280.03
2022-09-16T02:28:16.185Z,93285.09
2022-09-16T02:29:19.424Z,93293.50
2022-09-16T02:30:19.751Z,93293.94
2022-09-16T02:31:21.839Z,93259.63
2022-09-16T02:32:22.319Z,93286.81
2022-09-16T02:33:20.505Z,93284.00
2022-09-16T02:34:23.124Z,93286.13
2022-09-16T02:35:22.026Z,93279.13
2022-09-16T02:36:22.341Z,93283.41
2022-09-16T02:37:24.845Z,93277.06
2022-09-16T02:38:24.039Z,93289.00
2022-09-16T02:39:27.391Z,93286.47
2022-09-16T02:40:38.057Z,93286.63
2022-09-16T02:41:36.369Z,93284.53
2022-09-16T02:42:34.013Z,93289.25
2022-09-16T02:43:31.257Z,93293.72
2022-09-16T02:44:27.896Z,93301.53
2022-09-16T02:45:46.806Z,93301.44
2022-09-16T02:46:54.511Z,93303.13
2022-09-16T02:48:13.570Z,93305.50
2022-09-16T02:49:19.180Z,93300.31
2022-09-16T02:50:18.314Z,93304.91
2022-09-16T02:51:42.580Z,93291.91
2022-09-16T02:52:39.181Z,93292.19
2022-09-16T02:53:41.421Z,93291.97
2022-09-16T02:54:53.504Z,93289.66
2022-09-16T02:56:31.952Z,93300.63
2022-09-16T02:57:29.379Z,93304.50
2022-09-16T02:58:26.123Z,93297.69
2022-09-16T02:59:23.591Z,93292.28
2022-09-16T03:00:20.811Z,93295.00
2022-09-16T03:01:19.422Z,93299.56
2022-09-16T03:02:16.102Z,93305.56
2022-09-16T03:03:13.740Z,93302.28
2022-09-16T03:04:13.156Z,93309.06
2022-09-16T03:05:09.752Z,93308.00
2022-09-16T03:06:06.274Z,93311.25
2022-09-16T03:07:05.878Z,93304.72
2022-09-16T03:08:04.177Z,93307.44
2022-09-16T03:09:02.176Z,93309.13
2022-09-16T03:09:59.054Z,93272.50
2022-09-16T03:10:58.335Z,93314.13
2022-09-16T03:12:09.077Z,93305.38
2022-09-16T03:13:37.634Z,93325.03
2022-09-16T03:14:53.171Z,93322.81
2022-09-16T03:16:03.419Z,93324.00
2022-09-16T03:17:18.488Z,93322.25
2022-09-16T03:18:43.733Z,93323.31
2022-09-16T03:20:01.982Z,93321.59
2022-09-16T03:21:21.720Z,93327.72
2022-09-16T03:22:37.419Z,93326.22
2022-09-16T03:23:56.424Z,93333.38
2022-09-16T03:25:05.225Z,93330.63
2022-09-16T03:26:22.990Z,93327.72
2022-09-16T03:27:31.937Z,93309.16
2022-09-16T03:28:39.462Z,93330.81
2022-09-16T03:29:39.812Z,93316.88
2022-09-16T03:31:04.044Z,93313.34
2022-09-16T03:32:10.339Z,93302.94
2022-09-16T03:33:17.959Z,93301.78
2022-09-16T03:34:27.470Z,93285.81
2022-09-16T03:35:37.123Z,93282.31
2022-09-16T03:36:40.262Z,93290.25
2022-09-16T03:37:39.644Z,93299.00
2022-09-16T03:38:38.988Z,93274.75
2022-09-16T03:39:36.812Z,93315.72
2022-09-16T03:40:34.206Z,93320.31
2022-09-16T03:41:34.053Z,93312.91
2022-09-16T03:42:31.247Z,93299.91
2022-09-16T03:43:27.782Z,93324.75
2022-09-16T03:44:31.686Z,93322.88
2022-09-16T03:45:28.352Z,93320.94
2022-09-16T03:46:26.590Z,93317.03
2022-09-16T03:47:23.250Z,93321.25
2022-09-16T03:48:19.921Z,93305.34
2022-09-16T03:49:17.126Z,93322.09
2022-09-16T03:50:14.504Z,93322.09
2022-09-16T03:51:11.090Z,93322.13
2022-09-16T03:52:08.788Z,93318.06
2022-09-16T03:53:05.672Z,93314.00
2022-09-16T03:54:02.380Z,93290.47
2022-09-16T03:54:59.020Z,93315.97
2022-09-16T03:55:55.652Z,93309.75
2022-09-16T03:56:52.287Z,93312.22
2022-09-16T03:57:48.927Z,93321.09
2022-09-16T03:58:48.693Z,93313.06
2022-09-16T03:59:45.343Z,93298.19
2022-09-16T04:00:41.926Z,93295.84
2022-09-16T04:01:38.536Z,93308.41
2022-09-16T04:02:35.778Z,93286.84
2022-09-16T04:03:33.435Z,93315.69
2022-09-16T04:04:30.156Z,93307.97
2022-09-16T04:05:27.547Z,93304.41
2022-09-16T04:06:24.103Z,93302.53
2022-09-16T04:07:20.831Z,93299.91
2022-09-16T04:08:17.510Z,93297.19
2022-09-16T04:09:15.554Z,93280.31
2022-09-16T04:10:12.555Z,93294.06
2022-09-16T04:11:09.332Z,93276.16
2022-09-16T04:12:07.779Z,93286.47
2022-09-16T04:13:04.639Z,93290.75
2022-09-16T04:14:01.713Z,93266.94
2022-09-16T04:14:59.535Z,93291.41
2022-09-16T04:15:57.566Z,93293.06
2022-09-16T04:16:55.206Z,93298.84
2022-09-16T04:17:51.911Z,93308.00
2022-09-16T04:18:49.085Z,93303.06
2022-09-16T04:19:45.697Z,93300.44
2022-09-16T04:20:42.325Z,93295.44
2022-09-16T04:21:39.943Z,93298.91
2022-09-16T04:22:36.573Z,93307.41
2022-09-16T04:23:33.189Z,93309.22
2022-09-16T04:24:29.816Z,93307.00
2022-09-16T04:25:26.415Z,93317.44
2022-09-16T04:26:22.996Z,93316.53
2022-09-16T04:27:19.546Z,93327.34
2022-09-16T04:28:16.134Z,93322.47
2022-09-16T04:29:12.830Z,93321.53
2022-09-16T04:30:10.297Z,93316.09
2022-09-16T04:31:11.076Z,93319.31
2022-09-16T04:32:07.705Z,93310.63
2022-09-16T04:33:04.289Z,93311.66
2022-09-16T04:34:05.246Z,93316.94
2022-09-16T04:35:01.831Z,93314.75
2022-09-16T04:36:06.666Z,93319.94
2022-09-16T04:37:04.290Z,93329.13
2022-09-16T04:38:00.858Z,93331.25
2022-09-16T04:38:57.439Z,93335.31
2022-09-16T04:39:54.056Z,93328.41
2022-09-16T04:40:50.685Z,93332.63
2022-09-16T04:41:47.286Z,93330.94
2022-09-16T04:42:51.117Z,93344.06
2022-09-16T04:43:58.390Z,93342.91
2022-09-16T04:44:55.088Z,93350.69
2022-09-16T04:45:51.663Z,93334.06
2022-09-16T04:46:48.324Z,93341.59
2022-09-16T04:47:44.970Z,93350.81
2022-09-16T04:48:41.597Z,93353.13
2022-09-16T04:49:38.184Z,93343.38
2022-09-16T04:50:34.841Z,93348.16
2022-09-16T04:51:32.329Z,93343.22
2022-09-16T04:52:30.836Z,93349.50
2022-09-16T04:53:27.713Z,93350.25
2022-09-16T04:54:24.369Z,93343.16
2022-09-16T04:55:24.143Z,93326.34
2022-09-16T04:56:26.090Z,93353.38
2022-09-16T04:57:22.652Z,93350.69
2022-09-16T04:58:19.244Z,93346.09
2022-09-16T04:59:15.874Z,93344.38
2022-09-16T05:00:13.021Z,93338.13
2022-09-16T05:01:12.955Z,93339.06
2022-09-16T05:02:09.901Z,93334.38
2022-09-16T05:03:07.348Z,93334.00
2022-09-16T05:04:06.192Z,93335.34
2022-09-16T05:05:02.863Z,93329.19
2022-09-16T05:06:08.020Z,93329.63
2022-09-16T05:07:04.750Z,93332.34
2022-09-16T05:08:01.443Z,93335.81
2022-09-16T05:08:59.225Z,93323.13
2022-09-16T05:09:56.052Z,93331.94
2022-09-16T05:10:52.735Z,93332.19
2022-09-16T05:11:49.752Z,93331.53
2022-09-16T05:12:51.579Z,93334.44
2022-09-16T05:13:48.729Z,93325.38
2022-09-16T05:14:45.418Z,93323.53
2022-09-16T05:15:42.120Z,93326.91
2022-09-16T05:16:38.831Z,93321.31
2022-09-16T05:17:51.673Z,93326.16
2022-09-16T05:18:51.122Z,93326.06
2022-09-16T05:19:47.734Z,93327.06
2022-09-16T05:20:44.292Z,93324.72
2022-09-16T05:21:41.696Z,93323.19
2022-09-16T05:22:39.193Z,93299.63
2022-09-16T05:23:36.427Z,93322.16
2022-09-16T05:24:36.648Z,93318.53
2022-09-16T05:25:33.548Z,93317.44
2022-09-16T05:26:32.888Z,93311.91
2022-09-16T05:27:32.715Z,93316.75
2022-09-16T05:28:29.372Z,93322.34
2022-09-16T05:29:25.969Z,93316.25
2022-09-16T05:30:25.924Z,93317.75
2022-09-16T05:31:26.657Z,93317.19
2022-09-16T05:32:23.370Z,93315.09
2022-09-16T05:33:20.187Z,93311.00
2022-09-16T05:34:19.355Z,93299.97
2022-09-16T05:35:15.929Z,93312.84
2022-09-16T05:36:17.831Z,93313.34
2022-09-16T05:37:14.558Z,93314.22
2022-09-16T05:38:11.475Z,93319.53
2022-09-16T05:39:25.059Z,93317.25
2022-09-16T05:40:23.171Z,93321.91
2022-09-16T05:41:20.010Z,93319.44
2022-09-16T05:42:16.587Z,93313.47
2022-09-16T05:43:13.153Z,93315.56
2022-09-16T05:44:10.012Z,93309.63
2022-09-16T05:45:07.398Z,93311.56
2022-09-16T05:46:05.996Z,93311.16
2022-09-16T05:47:02.973Z,93308.78
2022-09-16T05:47:59.610Z,93304.63
2022-09-16T05:48:56.841Z,93275.78
2022-09-16T05:49:54.914Z,93305.22
2022-09-16T05:51:03.313Z,93292.41
2022-09-16T05:52:00.026Z,93308.59
2022-09-16T05:52:56.682Z,93293.94
2022-09-16T05:53:54.710Z,93305.22
2022-09-16T05:54:51.295Z,93316.53
2022-09-16T05:55:56.029Z,93299.13
2022-09-16T05:56:53.073Z,93293.53
2022-09-16T05:57:49.641Z,93298.78
2022-09-16T05:58:47.027Z,93299.09
2022-09-16T05:59:43.637Z,93316.16
2022-09-16T06:00:40.198Z,93315.41
2022-09-16T06:01:37.850Z,93313.28
2022-09-16T06:02:34.661Z,93311.47
2022-09-16T06:03:32.865Z,93313.84
2022-09-16T06:04:29.407Z,93308.88
2022-09-16T06:05:26.006Z,93309.16
2022-09-16T06:06:28.418Z,93307.75
2022-09-16T06:07:25.031Z,93312.63
2022-09-16T06:08:21.601Z,93311.00
2022-09-16T06:09:21.441Z,93316.50
2022-09-16T06:10:18.653Z,93310.53
2022-09-16T06:11:15.767Z,93299.09
2022-09-16T06:12:12.340Z,93312.63
2022-09-16T06:13:09.146Z,93302.69
2022-09-16T06:14:06.201Z,93308.88
2022-09-16T06:15:02.804Z,93307.09
2022-09-16T06:15:59.545Z,93307.97
2022-09-16T06:16:56.830Z,93296.41
2022-09-16T06:17:53.460Z,93310.03
2022-09-16T06:18:50.103Z,93310.16
2022-09-16T06:19:46.728Z,93296.72
2022-09-16T06:20:43.282Z,93308.28
2022-09-16T06:21:41.034Z,93305.69
2022-09-16T06:22:37.597Z,93301.78
2022-09-16T06:23:35.171Z,93310.69
2022-09-16T06:24:31.994Z,93302.78
2022-09-16T06:25:28.607Z,93305.84
2022-09-16T06:26:26.864Z,93310.41
2022-09-16T06:27:23.522Z,93308.44
2022-09-16T06:28:20.257Z,93304.72
2022-09-16T06:29:17.677Z,93298.53
2022-09-16T06:30:14.346Z,93296.25
2022-09-16T06:31:20.158Z,93293.84
2022-09-16T06:32:16.987Z,93301.69
2022-09-16T06:33:13.724Z,93306.28
2022-09-16T06:34:16.440Z,93294.50
2022-09-16T06:35:13.064Z,93305.38
2022-09-16T06:36:12.557Z,93290.88
2022-09-16T06:37:12.684Z,93288.81
2022-09-16T06:38:09.268Z,93290.50
2022-09-16T06:39:06.888Z,93297.34
2022-09-16T06:40:03.868Z,93298.16
2022-09-16T06:41:01.900Z,93280.31
2022-09-16T06:41:58.475Z,93299.84
2022-09-16T06:43:00.008Z,93296.25
2022-09-16T06:43:57.312Z,93300.81
2022-09-16T06:44:54.175Z,93300.88
2022-09-16T06:45:50.849Z,93303.91
2022-09-16T06:46:47.734Z,93304.78
2022-09-16T06:47:44.274Z,93307.91
2022-09-16T06:48:41.275Z,93309.50
2022-09-16T06:49:37.912Z,93311.50
2022-09-16T06:50:34.482Z,93314.56
2022-09-16T06:51:31.655Z,93313.13
2022-09-16T06:52:28.401Z,93315.69
2022-09-16T06:53:25.088Z,93319.25
2022-09-16T06:54:21.691Z,93321.25
2022-09-16T06:55:18.357Z,93319.38
2022-09-16T06:56:18.092Z,93316.25
2022-09-16T06:57:14.646Z,93316.88
2022-09-16T06:58:11.215Z,93315.88
2022-09-16T06:59:08.613Z,93316.31
2022-09-16T07:00:05.874Z,93312.53
2022-09-16T07:01:10.187Z,93319.63
2022-09-16T07:02:06.868Z,93311.66
2022-09-16T07:03:03.933Z,93314.84
2022-09-16T07:04:05.476Z,93312.31
2022-09-16T07:05:02.739Z,93314.72
2022-09-16T07:06:04.579Z,93315.56
2022-09-16T07:07:10.056Z,93314.78
2022-09-16T07:08:07.533Z,93323.06
2022-09-16T07:09:04.209Z,93319.06
2022-09-16T07:10:00.759Z,93326.66
2022-09-16T07:11:10.672Z,93322.06
2022-09-16T07:12:08.032Z,93327.00
2022-09-16T07:13:06.061Z,93323.28
2022-09-16T07:14:02.688Z,93317.63
2022-09-16T07:14:59.271Z,93318.81
2022-09-16T07:16:15.957Z,93315.31
2022-09-16T07:17:12.708Z,93317.94
2022-09-16T07:18:09.342Z,93320.09
2022-09-16T07:19:06.058Z,93325.47
2022-09-16T07:20:03.044Z,93305.88
2022-09-16T07:21:11.641Z,93317.78
2022-09-16T07:22:08.491Z,93323.34
2022-09-16T07:23:05.087Z,93316.94
2022-09-16T07:24:03.352Z,93317.94
2022-09-16T07:24:59.989Z,93318.25
2022-09-16T07:26:04.667Z,93315.00
2022-09-16T07:27:01.265Z,93312.53
2022-09-16T07:27:57.896Z,93308.53
2022-09-16T07:28:55.689Z,93310.97
2022-09-16T07:29:53.982Z,93300.56
2022-09-16T07:30:50.797Z,93312.66
2022-09-16T07:31:48.179Z,93301.50
2022-09-16T07:32:45.017Z,93306.81
2022-09-16T07:33:44.397Z,93311.06
2022-09-16T07:34:41.219Z,93308.91
2022-09-16T07:35:37.956Z,93307.31
2022-09-16T07:36:46.171Z,93311.19
2022-09-16T07:37:42.942Z,93320.84
2022-09-16T07:38:39.554Z,93304.50
2022-09-16T07:39:36.121Z,93317.56
2022-09-16T07:40:34.255Z,93311.41
2022-09-16T07:41:34.298Z,93307.63
2022-09-16T07:42:30.949Z,93305.22
2022-09-16T07:43:27.873Z,93298.72
2022-09-16T07:44:25.782Z,93303.81
2022-09-16T07:45:22.357Z,93298.28
2022-09-16T07:46:20.015Z,93276.84
2022-09-16T07:47:21.416Z,93292.75
2022-09-16T07:48:18.753Z,93292.81
2022-09-16T07:49:15.475Z,93295.81
2022-09-16T07:50:12.039Z,93291.88
2022-09-16T07:51:11.338Z,93292.06
2022-09-16T07:52:07.902Z,93290.25
2022-09-16T07:53:04.615Z,93298.78
2022-09-16T07:54:05.342Z,93295.28
2022-09-16T07:55:01.890Z,93295.69
2022-09-16T07:56:06.619Z,93292.84
2022-09-16T07:57:03.194Z,93286.00
2022-09-16T07:57:59.891Z,93298.91
2022-09-16T07:58:57.639Z,93296.31
2022-09-16T07:59:54.636Z,93296.78
2022-09-16T08:00:51.213Z,93297.97
2022-09-16T08:01:50.964Z,93278.50
2022-09-16T08:02:47.824Z,93286.78
2022-09-16T08:03:46.026Z,93279.91
2022-09-16T08:04:43.484Z,93277.28
2022-09-16T08:05:40.242Z,93273.59
2022-09-16T08:06:39.396Z,93264.66
2022-09-16T08:07:36.601Z,93282.59
2022-09-16T08:08:33.946Z,93272.63
2022-09-16T08:09:41.314Z,93268.19
2022-09-16T08:10:43.952Z,93255.88
2022-09-16T08:11:40.615Z,93254.94
2022-09-16T08:12:37.307Z,93260.47
2022-09-16T08:13:35.825Z,93264.84
2022-09-16T08:14:33.349Z,93258.47
2022-09-16T08:15:30.291Z,93260.03
2022-09-16T08:16:27.977Z,93273.66
2022-09-16T08:17:24.957Z,93281.00
2022-09-16T08:18:22.119Z,93278.22
2022-09-16T08:19:20.476Z,93280.00
2022-09-16T08:20:17.201Z,93276.03
2022-09-16T08:21:22.050Z,93270.97
2022-09-16T08:22:18.654Z,93283.41
2022-09-16T08:23:15.215Z,93282.47
2022-09-16T08:24:11.843Z,93283.25
2022-09-16T08:25:08.482Z,93279.75
2022-09-16T08:26:06.335Z,93277.06
2022-09-16T08:27:02.997Z,93271.06
2022-09-16T08:27:59.536Z,93276.38
2022-09-16T08:29:11.887Z,93274.09
2022-09-16T08:30:10.097Z,93274.97
2022-09-16T08:31:06.680Z,93275.94
2022-09-16T08:32:03.392Z,93273.34
2022-09-16T08:33:00.365Z,93269.03
2022-09-16T08:33:57.228Z,93275.09
2022-09-16T08:34:53.998Z,93275.81
2022-09-16T08:36:02.524Z,93269.09
2022-09-16T08:36:59.128Z,93268.63
2022-09-16T08:37:56.842Z,93268.47
2022-09-16T08:38:56.125Z,93264.69
2022-09-16T08:39:53.008Z,93266.34
2022-09-16T08:40:49.873Z,93265.59
2022-09-16T08:42:09.208Z,93259.50
2022-09-16T08:43:24.639Z,93261.81
2022-09-16T08:44:54.222Z,93262.41
2022-09-16T08:46:10.210Z,93260.78
2022-09-16T08:47:21.981Z,93253.38
2022-09-16T08:48:31.973Z,93261.16
2022-09-16T08:49:40.013Z,93263.41
2022-09-16T08:50:43.063Z,93255.75
2022-09-16T08:51:39.934Z,93255.16
2022-09-16T08:52:38.863Z,93250.47
2022-09-16T08:53:59.194Z,93251.13
2022-09-16T08:55:00.843Z,93251.91
2022-09-16T08:55:58.656Z,93250.88
2022-09-16T08:57:00.975Z,93246.19
2022-09-16T08:57:57.469Z,93256.03
2022-09-16T08:58:57.660Z,93227.16
2022-09-16T08:59:59.613Z,93249.66
2022-09-16T09:01:05.106Z,93255.41
2022-09-16T09:02:36.147Z,93255.88
2022-09-16T09:03:46.108Z,93247.63
2022-09-16T09:04:43.667Z,93257.25
2022-09-16T09:06:02.061Z,93263.34
2022-09-16T09:07:17.873Z,93267.25
2022-09-16T09:08:33.234Z,93269.41
2022-09-16T09:09:45.379Z,93266.03
2022-09-16T09:10:59.665Z,93270.50
2022-09-16T09:12:02.040Z,93279.28
2022-09-16T09:13:11.390Z,93269.81
2022-09-16T09:14:36.705Z,93275.00
2022-09-16T09:16:08.589Z,93267.75
2022-09-16T09:17:37.154Z,93261.81
2022-09-16T09:19:12.980Z,93260.47
2022-09-16T09:20:21.780Z,93270.22
2022-09-16T09:21:31.648Z,93269.59
2022-09-16T09:22:56.480Z,93263.78
2022-09-16T09:24:16.379Z,93259.84
2022-09-16T09:25:34.861Z,93260.63
2022-09-16T09:26:31.443Z,93266.22
2022-09-16T09:27:45.126Z,93265.34
2022-09-16T09:29:00.446Z,93273.53
2022-09-16T09:30:19.376Z,93261.28
2022-09-16T09:31:41.096Z,93263.44
2022-09-16T09:33:02.081Z,93256.94
2022-09-16T09:34:04.590Z,93258.78
2022-09-16T09:35:47.266Z,93255.78
2022-09-16T09:36:52.623Z,93256.19
2022-09-16T09:38:07.098Z,93253.19
2022-09-16T09:39:26.594Z,93252.88
2022-09-16T09:40:49.510Z,93250.19
2022-09-16T09:41:52.863Z,93254.69
2022-09-16T09:42:57.512Z,93258.34
2022-09-16T09:44:04.664Z,93255.44
2022-09-16T09:45:19.445Z,93257.19
2022-09-16T09:46:31.520Z,93259.91
2022-09-16T09:47:43.007Z,93260.78
2022-09-16T09:48:51.871Z,93264.38
2022-09-16T09:49:56.347Z,93266.84
2022-09-16T09:50:53.896Z,93266.38
2022-09-16T09:52:14.467Z,93264.72
2022-09-16T09:53:25.117Z,93261.25
2022-09-16T09:54:30.248Z,93268.66
2022-09-16T09:55:31.492Z,93275.03
2022-09-16T09:56:32.849Z,93273.84
2022-09-16T09:57:47.112Z,93274.47
2022-09-16T09:59:19.324Z,93273.41
2022-09-16T10:00:22.135Z,93273.25
2022-09-16T10:01:18.833Z,93278.25
2022-09-16T10:02:19.448Z,93277.97
2022-09-16T10:03:18.562Z,93284.50
2022-09-16T10:04:16.061Z,93282.03
2022-09-16T10:05:22.120Z,93280.06
2022-09-16T10:06:25.216Z,93293.84
2022-09-16T10:07:24.496Z,93277.25
2022-09-16T10:08:21.378Z,93289.09
2022-09-16T10:09:20.731Z,93284.56
2022-09-16T10:10:22.344Z,93293.97
2022-09-16T10:11:22.514Z,93287.13
2022-09-16T10:12:35.713Z,93302.91
2022-09-16T10:13:32.357Z,93304.72
2022-09-16T10:14:34.402Z,93309.69
2022-09-16T10:15:31.862Z,93319.69
2022-09-16T10:16:37.370Z,93332.81
2022-09-16T10:17:34.322Z,93342.78
2022-09-16T10:18:32.503Z,93350.22
2022-09-16T10:19:31.857Z,93359.75
2022-09-16T10:20:33.113Z,93363.41
2022-09-16T10:21:47.689Z,93367.75
2022-09-16T10:23:04.870Z,93377.38
2022-09-16T10:24:01.676Z,93376.09
2022-09-16T10:24:59.270Z,93389.66
2022-09-16T10:26:21.612Z,93402.53
2022-09-16T10:27:30.632Z,93399.94
2022-09-16T10:28:27.190Z,93401.06
2022-09-16T10:29:23.972Z,93411.63
2022-09-16T10:31:29.141Z,93392.47
2022-09-16T10:32:28.757Z,93430.06
2022-09-16T10:33:28.510Z,93430.75
2022-09-16T10:34:44.553Z,93450.63
2022-09-16T10:35:50.960Z,93466.91
2022-09-16T10:37:02.941Z,93477.56
2022-09-16T10:38:03.789Z,93480.59
2022-09-16T10:39:04.986Z,93480.47
2022-09-16T10:40:04.880Z,93481.75
2022-09-16T10:41:08.489Z,93491.59
2022-09-16T10:42:06.723Z,93489.56
2022-09-16T10:43:07.685Z,93482.88
2022-09-16T10:44:17.457Z,93480.28
2022-09-16T10:45:19.083Z,93485.97
2022-09-16T10:46:17.494Z,93484.94
2022-09-16T10:47:24.660Z,93485.50
2022-09-16T10:48:24.635Z,93493.47
2022-09-16T10:49:28.733Z,93497.72
2022-09-16T10:50:26.430Z,93490.28
2022-09-16T10:51:31.396Z,93489.69
2022-09-16T10:52:30.574Z,93485.97
2022-09-16T10:53:40.888Z,93481.56
2022-09-16T10:54:40.195Z,93481.13
2022-09-16T10:55:38.156Z,93476.03
2022-09-16T10:56:55.344Z,93480.47
2022-09-16T10:57:52.779Z,93475.25
2022-09-16T10:58:49.602Z,93460.53
2022-09-16T11:00:11.743Z,93473.19
2022-09-16T11:01:34.180Z,93460.56
2022-09-16T11:02:59.121Z,93452.66
2022-09-16T11:04:08.136Z,93446.72
2022-09-16T11:05:29.766Z,93450.94
2022-09-16T11:06:40.572Z,93432.59
2022-09-16T11:07:48.870Z,93430.03
2022-09-16T11:08:55.957Z,93429.53
2022-09-16T11:10:16.194Z,93423.84
2022-09-16T11:13:06.481Z,93396.47
2022-09-16T11:14:22.815Z,93388.19
2022-09-16T11:15:42.275Z,93393.22
2022-09-16T11:16:57.101Z,93384.00
2022-09-16T11:18:08.668Z,93384.25
2022-09-16T11:19:20.321Z,93378.84
2022-09-16T11:20:38.671Z,93369.31
2022-09-16T11:21:55.912Z,93359.00
2022-09-16T11:22:59.886Z,93345.31
2022-09-16T11:24:08.497Z,93330.53
2022-09-16T11:25:23.690Z,93325.78
2022-09-16T11:26:25.281Z,93331.22
2022-09-16T11:27:40.904Z,93324.69
2022-09-16T11:28:53.781Z,93317.13
2022-09-16T11:29:57.808Z,93301.06
2022-09-16T11:31:06.454Z,93298.38
2022-09-16T11:32:05.714Z,93296.16
2022-09-16T11:33:08.245Z,93303.31
2022-09-16T11:34:20.953Z,93311.78
2022-09-16T11:35:54.680Z,93306.44
2022-09-16T11:36:54.475Z,93304.59
2022-09-16T11:38:10.521Z,93295.91
2022-09-16T11:39:43.757Z,93306.72
2022-09-16T11:40:47.974Z,93308.38
2022-09-16T11:42:03.089Z,93303.97
2022-09-16T11:43:18.119Z,93303.50
2022-09-16T11:44:43.441Z,93294.56
2022-09-16T11:45:49.767Z,93291.56
2022-09-16T11:47:31.260Z,93281.97
2022-09-16T11:48:46.003Z,93282.28
2022-09-16T11:50:09.492Z,93283.13
2022-09-16T11:51:27.974Z,93279.84
2022-09-16T11:52:49.374Z,93285.03
2022-09-16T11:54:01.765Z,93296.91
2022-09-16T11:55:06.666Z,93299.63
2022-09-16T11:56:18.340Z,93299.28
2022-09-16T11:57:28.997Z,93282.13
2022-09-16T11:58:38.294Z,93292.47
2022-09-16T11:59:41.197Z,93304.28
2022-09-16T12:00:39.487Z,93307.81
2022-09-16T12:01:52.326Z,93315.09
2022-09-16T12:03:10.645Z,93312.59
2022-09-16T12:04:28.935Z,93306.44
2022-09-16T12:05:29.702Z,93295.75
2022-09-16T12:06:32.081Z,93309.78
2022-09-16T12:07:45.200Z,93277.19
2022-09-16T12:09:00.315Z,93318.34
2022-09-16T12:10:44.677Z,93303.91
2022-09-16T12:11:50.359Z,93311.84
2022-09-16T12:12:52.882Z,93303.28
2022-09-16T12:14:05.120Z,93314.72
2022-09-16T12:15:16.719Z,93312.47
2022-09-16T12:16:38.973Z,93306.78
2022-09-16T12:17:39.719Z,93305.59
2022-09-16T12:18:43.052Z,93305.09
2022-09-16T12:19:49.227Z,93312.06
2022-09-16T12:20:51.705Z,93298.06
2022-09-16T12:21:58.384Z,93311.47
2022-09-16T12:23:09.705Z,93312.22
2022-09-16T12:24:45.146Z,93297.47
2022-09-16T12:25:48.003Z,93307.09
2022-09-16T12:26:57.771Z,93312.47